Levan, UT (84639)

12:21 PM MDT on July 07, 2015 (GMT -0600)
Fountain Green | | Change Station
CLOSE
Current Station
Personal Weather Station
Location: Fountain Green, UT
Elevation: 5912 ft
Nearby Weather Stations

Elev 5912 ft 39.63 °N, 111.63 °W | Updated 14 minutes ago

Partly Cloudy
Partly Cloudy
80.1 °F
Feels Like 80 °F
N
2.2
Wind Variable Wind from ESE

Today
High -- | Low -- °F
--% Chance of Precip.
Yesterday
High -- | Low -- °F
Precip. -- in
6:06 AM 8:57 PM
Waning Gibbous, 62% visible
Pressure 30.11 in
Visibility 15.0 miles
Clouds Scattered Clouds 6500 ft
Scattered Clouds 9000 ft
Mostly Cloudy 16000 ft
Heat Index 80 °F
Dew Point 53 °F
Humidity 39%
Rainfall 0.00 in
Snow Depth Not available.
UV 5 out of 12
Pollen 5.00 out of 12
Air Quality Not available.
Flu Activity Not available.
METAR KPVU 071714Z 15004KT 15SM SCT065 SCT090 BKN160 24/09 A3011

More Conditions Fewer Conditions

Pressure 30.11 in
Visibility 15.0 miles
Clouds Scattered Clouds 6500 ft
Scattered Clouds 9000 ft
Mostly Cloudy 16000 ft
Heat Index 80 °F
Dew Point 53 °F
Humidity 39%
Rainfall 0.00 in
Snow Depth Not available.
UV 5 out of 12
Pollen 5.00 out of 12
Air Quality Not available.
Flu Activity Not available.
METAR KPVU 071714Z 15004KT 15SM SCT065 SCT090 BKN160 24/09 A3011

More Conditions Fewer Conditions

10-Day Weather Forecast

×

Almanac

Astronomy

Jul. 07, 2015 Rise Set
Actual Time
Civil Twilight
Nautical Twilight
Astronomical Twilight
Moon
Length of Visible Light
Length of Day
Tomorrow will be .
, % of the Moon is Illuminated

Today's Extremes

State Highs State Lows

Community

WunderPhotos

Upload Photos

1,835,863 photos uploaded!

WunderBlogs® & News

Nearby

Air Quality

  Air Quality AQ Index Pollutant
Not available.

Snow Depth

Station Depth Elevation

Earthquake Activity

City Distance Mag. Time & Date
Minimum magnitude displayed is 2.5.

Coastal Water Temperatures

Place Temperature

Stations

Nearby Weather Stations

Station Location Temp. Windchill Dew Point Humidity Wind Precip. Elev Updated Type